Time;durP1;ratioP1;P1;durP2;ratioP2;P2;SDS_P1;SDS_P2;PMS_P1;PMS_P2;Temp;Humidity;BMP_temperature;BMP_pressure;BME280_temperature;BME280_humidity;BME280_pressure;Samples;Min_cycle;Max_cycle;Signal;HPM_P1;HPM_P2
2023/06/04 00:00:15;;;;;;;0.40;0.40;;;;;;;13.87;64.97;99856.97;5054681;28;20490;-63
2023/06/04 00:02:44;;;;;;;1.45;1.20;;;;;;;13.88;64.80;99861.25;5054882;28;20049;-63
2023/06/04 00:05:13;;;;;;;0.70;0.70;;;;;;;13.86;65.05;99863.00;5053795;28;20051;-63
2023/06/04 00:07:42;;;;;;;0.63;0.63;;;;;;;13.89;65.01;99857.84;5053997;28;20037;-63
2023/06/04 00:10:11;;;;;;;0.40;0.40;;;;;;;13.76;65.12;99851.13;5054590;28;20483;-63
2023/06/04 00:12:40;;;;;;;0.97;0.93;;;;;;;13.67;65.10;99846.09;5054358;28;20114;-63
2023/06/04 00:15:11;;;;;;;0.40;0.40;;;;;;;13.65;65.32;99858.09;5054411;28;20282;-63
2023/06/04 00:17:40;;;;;;;0.88;0.85;;;;;;;13.52;65.71;99853.94;5054290;28;20049;-63
2023/06/04 00:20:10;;;;;;;0.60;0.60;;;;;;;13.44;66.22;99854.88;5053460;28;20058;-63
2023/06/04 00:22:41;;;;;;;0.75;0.75;;;;;;;13.43;66.12;99852.34;5054498;28;20048;-63
2023/06/04 00:25:10;;;;;;;2.60;0.95;;;;;;;13.51;66.35;99849.69;5054366;28;20455;-63
2023/06/04 00:27:39;;;;;;;0.63;0.63;;;;;;;13.55;66.32;99847.09;5054004;28;20114;-63
2023/06/04 00:30:11;;;;;;;0.80;0.80;;;;;;;13.50;66.16;99843.72;5052958;28;20045;-63
2023/06/04 00:32:40;;;;;;;0.45;0.45;;;;;;;13.29;66.26;99837.06;5053991;28;20487;-63
2023/06/04 00:35:11;;;;;;;1.27;1.02;;;;;;;13.38;66.51;99844.69;5053198;28;20049;-63
2023/06/04 00:37:40;;;;;;;1.02;0.93;;;;;;;13.43;66.47;99852.34;5053163;28;20395;-63
2023/06/04 00:40:10;;;;;;;4.95;1.52;;;;;;;13.41;66.63;99849.75;5053979;28;20045;-63
2023/06/04 00:42:39;;;;;;;0.40;0.40;;;;;;;13.39;66.51;99845.50;5053767;28;20052;-63
2023/06/04 00:45:13;;;;;;;0.60;0.60;;;;;;;13.37;66.79;99853.22;5054229;28;20463;-63
2023/06/04 00:47:42;;;;;;;0.40;0.40;;;;;;;13.39;66.82;99851.50;5052747;28;20041;-63
2023/06/04 00:50:12;;;;;;;0.65;0.63;;;;;;;13.33;67.04;99855.84;5053805;28;20069;-63
2023/06/04 00:52:41;;;;;;;0.98;0.93;;;;;;;13.36;67.16;99848.97;5053731;28;20045;-62
2023/06/04 00:55:11;;;;;;;0.60;0.60;;;;;;;13.37;66.64;99848.09;5052876;28;20391;-63
2023/06/04 00:57:40;;;;;;;0.95;0.93;;;;;;;13.40;67.40;99853.22;5052637;28;20278;-63
2023/06/04 01:00:12;;;;;;;0.70;0.70;;;;;;;13.38;67.25;99849.81;5052786;28;20489;-63
2023/06/04 01:02:44;;;;;;;1.13;0.55;;;;;;;13.37;67.15;99848.09;5053576;28;20055;-62
2023/06/04 01:05:22;;;;;;;1.15;0.90;;;;;;;13.40;67.21;99842.97;5053659;28;20080;-63
2023/06/04 01:07:52;;;;;;;0.88;0.88;;;;;;;13.37;66.99;99837.84;5053050;28;20041;-63
2023/06/04 01:10:22;;;;;;;0.40;0.40;;;;;;;13.41;67.23;99839.50;5053786;28;20041;-63
2023/06/04 01:12:51;;;;;;;0.47;0.47;;;;;;;13.44;67.55;99846.31;5053425;28;20406;-63
2023/06/04 01:15:21;;;;;;;0.47;0.47;;;;;;;13.46;67.33;99836.91;5053847;28;20040;-63
2023/06/04 01:17:57;;;;;;;0.55;0.55;;;;;;;13.43;67.39;99836.94;5053485;28;20494;-63
2023/06/04 01:20:35;;;;;;;0.40;0.40;;;;;;;13.34;67.66;99843.00;5052603;28;20073;-63
2023/06/04 01:23:20;;;;;;;0.40;0.40;;;;;;;13.11;67.97;99839.81;5053795;28;20398;-63
2023/06/04 01:25:50;;;;;;;0.80;0.80;;;;;;;12.93;68.76;99839.94;5052211;28;20048;-63
2023/06/04 01:28:21;;;;;;;1.77;1.08;;;;;;;12.63;69.15;99838.44;5053261;28;20053;-63
2023/06/04 01:30:53;;;;;;;2.25;1.58;;;;;;;12.56;69.55;99844.44;5053471;28;20053;-63
2023/06/04 01:33:22;;;;;;;0.75;0.75;;;;;;;12.45;69.92;99841.06;5053473;28;20466;-63
2023/06/04 01:35:50;;;;;;;0.70;0.70;;;;;;;12.49;70.20;99832.53;5053526;28;20037;-63
2023/06/04 01:38:20;;;;;;;0.82;0.77;;;;;;;12.66;69.77;99848.66;5052242;28;20037;-63
2023/06/04 01:40:50;;;;;;;2.30;1.35;;;;;;;12.63;70.11;99835.00;5053131;28;20045;-63
2023/06/04 01:43:19;;;;;;;;;;;;;;;12.74;69.57;99839.19;5053522;28;20120;-63
2023/06/04 01:45:48;;;;;;;1.15;0.90;;;;;;;12.68;69.82;99841.81;5053510;28;20378;-63
2023/06/04 01:48:18;;;;;;;0.43;0.43;;;;;;;12.67;69.65;99841.78;5053177;28;20124;-63
2023/06/04 01:50:47;;;;;;;0.68;0.68;;;;;;;12.68;69.67;99841.81;5053140;28;20083;-63
2023/06/04 01:53:16;;;;;;;0.85;0.75;;;;;;;12.74;69.72;99833.25;5053025;28;20052;-63
2023/06/04 01:55:45;;;;;;;0.63;0.63;;;;;;;12.77;69.55;99843.44;5051896;28;20056;-63
2023/06/04 01:58:17;;;;;;;0.68;0.68;;;;;;;12.74;69.51;99839.19;5052130;28;20055;-63
2023/06/04 02:00:46;;;;;;;0.38;0.38;;;;;;;12.74;69.50;99848.59;5052065;28;20053;-63
2023/06/04 02:03:15;;;;;;;0.65;0.65;;;;;;;12.76;69.51;99841.75;5053119;28;20063;-63
2023/06/04 02:05:46;;;;;;;0.70;0.70;;;;;;;12.78;69.25;99838.31;5053300;28;20041;-63
2023/06/04 02:08:18;;;;;;;0.40;0.40;;;;;;;12.83;69.04;99848.53;5053287;28;20095;-62
2023/06/04 02:10:48;;;;;;;2.40;1.88;;;;;;;12.87;69.06;99855.31;5052978;28;20135;-63
2023/06/04 02:13:17;;;;;;;0.70;0.70;;;;;;;12.77;69.07;99843.44;5051767;28;20051;-63
2023/06/04 02:15:46;;;;;;;0.40;0.40;;;;;;;12.87;68.83;99854.47;5051712;28;20128;-63
2023/06/04 02:18:17;;;;;;;1.05;0.70;;;;;;;12.86;68.57;99851.06;5053124;28;20044;-63
2023/06/04 02:20:48;;;;;;;0.68;0.68;;;;;;;12.76;68.89;99852.00;5056345;28;20087;-63
2023/06/04 02:23:20;;;;;;;1.17;0.82;;;;;;;12.72;69.12;99855.44;5056934;28;20061;-63
2023/06/04 02:25:50;;;;;;;0.57;0.57;;;;;;;12.70;69.38;99854.59;5056509;28;20102;-63
2023/06/04 02:28:19;;;;;;;0.52;0.52;;;;;;;12.58;69.58;99846.97;5055231;28;20402;-62
2023/06/04 02:30:47;;;;;;;0.50;0.50;;;;;;;12.65;69.57;99853.75;5056343;28;20053;-63
2023/06/04 02:33:16;;;;;;;0.50;0.50;;;;;;;12.53;69.50;99833.34;5055193;28;20061;-63
2023/06/04 02:35:47;;;;;;;0.70;0.67;;;;;;;12.65;69.16;99861.44;5056333;28;20045;-62
2023/06/04 02:38:15;;;;;;;0.50;0.50;;;;;;;12.67;69.15;99859.72;5056291;28;20098;-62
2023/06/04 02:40:45;;;;;;;0.45;0.45;;;;;;;12.76;69.00;99863.06;5056466;28;20049;-62
2023/06/04 02:43:13;;;;;;;1.30;1.20;;;;;;;12.73;68.66;99862.25;5056592;28;20049;-62
2023/06/04 02:45:42;;;;;;;0.68;0.60;;;;;;;12.72;68.56;99857.97;5056095;28;20060;-62
2023/06/04 02:48:11;;;;;;;1.55;0.68;;;;;;;12.74;68.75;99859.69;5056152;28;20502;-61
2023/06/04 02:50:42;;;;;;;0.60;0.60;;;;;;;12.75;68.59;99865.66;5054799;28;20049;-62
2023/06/04 02:53:12;;;;;;;0.40;0.40;;;;;;;12.79;68.55;99859.66;5056576;28;20501;-62
2023/06/04 02:55:41;;;;;;;2.60;1.17;;;;;;;12.77;68.35;99869.06;5055035;28;20045;-62
2023/06/04 02:58:10;;;;;;;0.55;0.50;;;;;;;12.74;68.26;99871.66;5056095;28;20406;-61
2023/06/04 03:00:40;;;;;;;0.50;0.50;;;;;;;12.65;68.51;99870.00;5054566;28;20045;-62
2023/06/04 03:03:08;;;;;;;0.50;0.50;;;;;;;12.65;68.79;99869.13;5055288;28;20187;-62
2023/06/04 03:05:39;;;;;;;1.13;0.77;;;;;;;12.57;68.79;99837.63;5055738;28;20332;-62
2023/06/04 03:08:08;;;;;;;0.50;0.50;;;;;;;12.74;68.74;99861.41;5056203;28;20486;-62
2023/06/04 03:10:38;;;;;;;0.85;0.75;;;;;;;12.84;68.61;99857.91;5056004;28;20119;-62
2023/06/04 03:13:07;;;;;;;0.55;0.55;;;;;;;12.96;68.24;99865.50;5054542;28;20041;-61
2023/06/04 03:15:38;;;;;;;0.55;0.55;;;;;;;12.98;68.43;99863.78;5055770;28;20410;-62
2023/06/04 03:18:08;;;;;;;0.47;0.45;;;;;;;13.02;68.25;99875.72;5055575;28;20045;-62
2023/06/04 03:20:37;;;;;;;0.40;0.40;;;;;;;13.05;68.38;99873.13;5055473;28;20045;-62
2023/06/04 03:23:07;;;;;;;0.55;0.55;;;;;;;13.00;68.16;99869.75;5054354;28;20131;-62
2023/06/04 03:25:38;;;;;;;0.40;0.40;;;;;;;13.12;68.05;99871.41;5055733;28;20045;-62
2023/06/04 03:28:06;;;;;;;0.40;0.40;;;;;;;13.24;68.50;99872.16;5054172;28;20057;-63
2023/06/04 03:30:35;;;;;;;0.50;0.50;;;;;;;13.29;68.23;99875.50;5053540;28;20103;-63
2023/06/04 03:33:06;;;;;;;0.52;0.52;;;;;;;13.35;68.19;99870.34;5055862;28;20166;-63
2023/06/04 03:35:35;;;;;;;0.40;0.40;;;;;;;13.46;68.29;99884.78;5055569;28;20049;-63
2023/06/04 03:38:04;;;;;;;0.40;0.40;;;;;;;13.43;68.23;99871.13;5055203;28;20044;-63
2023/06/04 03:40:34;;;;;;;0.50;0.50;;;;;;;13.56;67.77;99884.66;5055120;28;20044;-63
2023/06/04 03:43:07;;;;;;;1.00;0.50;;;;;;;13.44;67.77;99849.75;5055191;28;20094;-63
2023/06/04 03:45:36;;;;;;;0.63;0.50;;;;;;;13.66;67.33;99880.31;5055588;28;20529;-63
2023/06/04 03:48:04;;;;;;;0.50;0.50;;;;;;;13.75;67.28;99881.06;5053891;28;20450;-63
2023/06/04 03:50:36;;;;;;;0.82;0.77;;;;;;;13.79;67.19;99882.75;5054878;28;20045;-63
2023/06/04 03:53:07;;;;;;;5.38;0.85;;;;;;;13.73;67.00;99887.06;5054929;28;20059;-63
2023/06/04 03:55:36;;;;;;;0.40;0.40;;;;;;;13.75;66.83;99890.50;5054029;28;20051;-63
2023/06/04 03:58:11;;;;;;;0.40;0.40;;;;;;;13.79;66.34;99892.16;5055022;28;20045;-63
2023/06/04 04:00:45;;;;;;;0.50;0.50;;;;;;;13.85;66.25;99897.19;5053522;28;20037;-63
2023/06/04 04:03:14;;;;;;;0.80;0.80;;;;;;;13.72;66.20;99862.31;5053877;28;20045;-63
2023/06/04 04:05:45;;;;;;;0.88;0.88;;;;;;;13.90;65.65;99896.31;5055014;28;20060;-63
2023/06/04 04:08:16;;;;;;;0.65;0.65;;;;;;;13.88;65.48;99899.75;5054872;28;20037;-63
2023/06/04 04:10:46;;;;;;;0.60;0.60;;;;;;;13.85;65.84;99892.94;5054802;28;20176;-63
2023/06/04 04:13:18;;;;;;;0.50;0.50;;;;;;;13.88;65.56;99895.47;5054831;28;20127;-63
2023/06/04 04:15:47;;;;;;;0.50;0.50;;;;;;;13.85;65.56;99885.22;5054727;28;20053;-63
2023/06/04 04:18:16;;;;;;;0.50;0.50;;;;;;;13.96;65.12;99885.13;5054423;28;20049;-63
2023/06/04 04:20:46;;;;;;;0.47;0.47;;;;;;;13.89;64.81;99883.50;5053018;28;20051;-63
2023/06/04 04:23:16;;;;;;;0.50;0.50;;;;;;;13.97;64.69;99897.06;5053486;28;20123;-63
2023/06/04 04:25:48;;;;;;;0.70;0.70;;;;;;;14.01;64.59;99888.50;5054303;28;20040;-63
2023/06/04 04:28:19;;;;;;;1.77;1.33;;;;;;;14.07;64.48;99894.41;5052859;28;20111;-63
2023/06/04 04:30:49;;;;;;;0.40;0.40;;;;;;;14.07;64.39;99883.28;5053024;28;20045;-63
2023/06/04 04:33:18;;;;;;;1.42;0.77;;;;;;;14.08;64.17;99877.28;5052995;28;20045;-63
2023/06/04 04:35:49;;;;;;;0.50;0.50;;;;;;;14.16;64.34;99888.28;5054318;28;20124;-62
2023/06/04 04:38:23;;;;;;;0.75;0.75;;;;;;;14.11;64.20;99890.06;5053000;28;20110;-63
2023/06/04 04:41:01;;;;;;;2.13;0.88;;;;;;;14.09;64.06;99884.09;5054013;28;20049;-63
2023/06/04 04:43:34;;;;;;;0.80;0.80;;;;;;;14.16;64.30;99893.44;5053945;28;20048;-63
2023/06/04 04:46:16;;;;;;;0.50;0.50;;;;;;;14.20;63.91;99889.97;5054271;28;20556;-63
2023/06/04 04:48:45;;;;;;;0.40;0.40;;;;;;;14.26;64.23;99889.03;5053017;28;20048;-63
2023/06/04 04:51:14;;;;;;;0.50;0.50;;;;;;;14.15;63.70;99871.22;5053739;28;20049;-63
2023/06/04 04:53:43;;;;;;;0.73;0.73;;;;;;;14.30;63.70;99895.84;5052892;28;20473;-62
2023/06/04 04:56:13;;;;;;;3.92;1.25;;;;;;;14.31;63.66;99897.56;5053940;28;20044;-63
2023/06/04 04:58:47;;;;;;;0.82;0.82;;;;;;;14.35;63.87;99900.06;5052553;28;20498;-63
2023/06/04 05:01:16;;;;;;;0.60;0.60;;;;;;;14.37;63.86;99888.06;5052583;28;20418;-63
2023/06/04 05:03:45;;;;;;;;;;;;;;;14.56;63.54;99888.69;5053201;28;20057;-63
2023/06/04 05:06:16;;;;;;;1.40;1.02;;;;;;;14.60;63.04;99896.34;5052485;28;20460;-63
2023/06/04 05:08:46;;;;;;;1.02;0.93;;;;;;;14.67;62.79;99905.66;5052642;28;20045;-63
2023/06/04 05:11:17;;;;;;;0.90;0.90;;;;;;;14.64;62.63;99902.25;5053830;28;20177;-63
2023/06/04 05:13:49;;;;;;;0.90;0.73;;;;;;;14.60;62.13;99893.75;5052505;28;20438;-63
2023/06/04 05:16:20;;;;;;;0.70;0.70;;;;;;;14.73;61.81;99913.25;5052430;28;20053;-63
2023/06/04 05:18:51;;;;;;;0.73;0.73;;;;;;;14.82;61.88;99909.72;5053394;28;20052;-63
2023/06/04 05:21:24;;;;;;;0.82;0.82;;;;;;;14.80;61.23;99911.47;5053666;28;20447;-63
2023/06/04 05:23:59;;;;;;;0.68;0.68;;;;;;;14.80;61.12;99908.91;5053794;28;20399;-63
2023/06/04 05:26:33;;;;;;;0.40;0.40;;;;;;;14.89;61.00;99913.06;5053136;28;20398;-63
2023/06/04 05:29:09;;;;;;;0.40;0.40;;;;;;;14.77;60.66;99884.09;5053398;28;20048;-64
2023/06/04 05:31:42;;;;;;;0.47;0.47;;;;;;;15.06;60.77;99918.81;5053669;28;20099;-63
2023/06/04 05:34:16;;;;;;;0.90;0.90;;;;;;;15.17;60.64;99919.47;5052329;28;20045;-63
2023/06/04 05:36:46;;;;;;;0.73;0.50;;;;;;;15.21;60.40;99916.00;5053149;28;20483;-64
2023/06/04 05:39:16;;;;;;;0.50;0.50;;;;;;;15.21;60.29;99916.00;5053233;28;20045;-63
2023/06/04 05:41:52;;;;;;;0.50;0.50;;;;;;;15.29;60.35;99919.28;5053149;28;20045;-63
2023/06/04 05:44:22;;;;;;;2.63;0.85;;;;;;;15.36;59.88;99906.31;5053560;28;20107;-63
2023/06/04 05:46:51;;;;;;;0.60;0.60;;;;;;;15.45;59.91;99913.06;5052263;28;20063;-64
2023/06/04 05:49:24;;;;;;;0.45;0.45;;;;;;;15.43;59.88;99901.91;5053410;28;20053;-64
2023/06/04 05:51:55;;;;;;;0.75;0.75;;;;;;;15.60;59.66;99905.06;5053528;28;20040;-63
2023/06/04 05:54:24;;;;;;;0.70;0.70;;;;;;;15.68;59.54;99907.50;5037110;28;20433;-63
2023/06/04 05:56:53;;;;;;;0.80;0.80;;;;;;;15.91;59.92;99916.50;5055833;28;20052;-64
2023/06/04 05:59:23;;;;;;;0.45;0.40;;;;;;;16.01;59.82;99923.19;5057384;28;20056;-63
2023/06/04 06:01:52;;;;;;;1.27;1.05;;;;;;;16.01;59.43;99922.34;5055733;28;20049;-63
2023/06/04 06:04:21;;;;;;;0.38;0.38;;;;;;;15.94;60.39;99906.16;5056841;28;20052;-64
2023/06/04 06:06:51;;;;;;;0.60;0.60;;;;;;;16.18;59.77;99935.75;5055918;28;20159;-63
2023/06/04 06:09:21;;;;;;;0.40;0.40;;;;;;;15.98;59.44;99902.66;5057174;28;20049;-64
2023/06/04 06:11:50;;;;;;;1.27;1.17;;;;;;;16.21;59.03;99935.69;5055703;28;20394;-63
2023/06/04 06:14:19;;;;;;;0.57;0.57;;;;;;;16.29;58.77;99928.66;5057056;28;20045;-64
2023/06/04 06:16:50;;;;;;;0.77;0.77;;;;;;;16.32;58.54;99927.75;5056614;28;20057;-63
2023/06/04 06:19:19;;;;;;;0.65;0.65;;;;;;;16.36;58.68;99935.41;5072145;28;20067;-64
2023/06/04 06:21:48;;;;;;;0.57;0.57;;;;;;;16.35;58.18;99919.94;5056532;28;20045;-64
2023/06/04 06:24:17;;;;;;;0.57;0.57;;;;;;;16.32;58.94;99918.28;5055591;28;20053;-64
2023/06/04 06:26:46;;;;;;;0.60;0.60;;;;;;;16.48;58.29;99929.16;5037618;28;20437;-64
2023/06/04 06:29:16;;;;;;;0.40;0.40;;;;;;;16.54;58.40;99940.19;5056273;28;20041;-64
2023/06/04 06:31:46;;;;;;;0.40;0.40;;;;;;;16.54;58.77;99936.75;5055558;28;20094;-64
2023/06/04 06:34:16;;;;;;;0.70;0.70;;;;;;;16.54;58.75;99944.50;5056398;28;20069;-63
2023/06/04 06:36:46;;;;;;;0.77;0.77;;;;;;;16.61;58.66;99933.19;5037681;28;20037;-64
2023/06/04 06:39:15;;;;;;;0.93;0.90;;;;;;;16.77;58.87;99943.13;5036903;28;20422;-64
2023/06/04 06:41:44;;;;;;;0.40;0.40;;;;;;;16.86;59.11;99942.09;5035062;28;20115;-63
2023/06/04 06:44:18;;;;;;;0.95;0.90;;;;;;;16.96;58.94;99943.59;5035091;28;20052;-63
2023/06/04 06:46:48;;;;;;;0.67;0.67;;;;;;;17.06;58.72;99944.25;5036164;28;20053;-64
2023/06/04 06:49:19;;;;;;;0.63;0.63;;;;;;;17.14;58.31;99943.16;5036187;28;20140;-64
2023/06/04 06:51:48;;;;;;;0.57;0.57;;;;;;;17.31;57.87;99941.03;5036189;28;20041;-64
2023/06/04 06:54:17;;;;;;;0.70;0.70;;;;;;;17.43;58.03;99937.31;5036110;28;20057;-64
2023/06/04 06:56:46;;;;;;;;;;;;;;;17.46;57.29;99950.16;5036613;28;20065;-63
2023/06/04 06:59:14;;;;;;;0.88;0.88;;;;;;;17.41;57.50;99946.81;5035794;28;19921;-64
2023/06/04 07:01:44;;;;;;;;;;;;;;;17.51;57.55;99947.44;5036584;28;20115;-64
2023/06/04 07:04:12;;;;;;;0.70;0.70;;;;;;;17.58;57.10;99943.88;5046678;28;19925;-63
2023/06/04 07:06:43;;;;;;;0.60;0.60;;;;;;;17.70;56.61;99956.47;5054395;28;20048;-64
2023/06/04 07:09:12;;;;;;;1.58;0.60;;;;;;;17.77;56.64;99952.84;5055772;28;20049;-64
2023/06/04 07:11:41;;;;;;;0.63;0.63;;;;;;;17.84;56.39;99954.38;5054561;28;20037;-64
2023/06/04 07:14:09;;;;;;;0.40;0.40;;;;;;;17.67;56.32;99928.13;5055630;28;20789;-63
2023/06/04 07:16:38;;;;;;;0.50;0.50;;;;;;;17.84;56.59;99962.13;5055357;28;20040;-64
2023/06/04 07:19:07;;;;;;;0.50;0.50;;;;;;;17.70;56.19;99928.91;5055710;28;20048;-64
2023/06/04 07:21:36;;;;;;;0.50;0.50;;;;;;;17.83;55.59;99955.25;5055630;28;20106;-64
2023/06/04 07:24:06;;;;;;;1.27;1.17;;;;;;;17.89;55.41;99968.03;5055470;28;20369;-64
2023/06/04 07:26:36;;;;;;;1.10;0.93;;;;;;;17.92;55.56;99966.19;5055060;28;20077;-64
2023/06/04 07:29:05;;;;;;;4.20;0.82;;;;;;;17.92;55.57;99960.19;5055374;28;20060;-64
2023/06/04 07:31:34;;;;;;;1.53;1.43;;;;;;;17.86;55.50;99948.28;5050356;28;20049;-64
2023/06/04 07:34:02;;;;;;;0.60;0.60;;;;;;;17.87;55.12;99951.72;5035155;28;20399;-65
2023/06/04 07:36:32;;;;;;;0.68;0.65;;;;;;;18.00;55.52;99955.66;5034927;28;20454;-65
2023/06/04 07:39:01;;;;;;;0.50;0.50;;;;;;;18.00;56.54;99959.09;5034839;28;20037;-64
2023/06/04 07:41:31;;;;;;;0.70;0.70;;;;;;;18.01;56.41;99954.78;5034492;28;20045;-64
2023/06/04 07:44:01;;;;;;;0.80;0.77;;;;;;;17.84;55.73;99933.72;5032823;28;20046;-64
2023/06/04 07:46:30;;;;;;;3.40;1.65;;;;;;;18.06;55.68;99942.59;5034945;28;20041;-64
2023/06/04 07:48:59;;;;;;;0.80;0.80;;;;;;;18.23;55.86;99971.41;5040284;28;20112;-64
2023/06/04 07:51:27;;;;;;;0.53;0.53;;;;;;;18.05;55.62;99954.66;5044431;28;20124;-64
2023/06/04 07:53:56;;;;;;;0.60;0.60;;;;;;;18.14;55.87;99973.41;5044791;28;20107;-64
2023/06/04 07:56:25;;;;;;;0.50;0.50;;;;;;;18.25;55.77;99984.28;5043823;28;20040;-63
2023/06/04 07:58:55;;;;;;;0.57;0.57;;;;;;;18.37;55.48;99989.97;5040569;28;20123;-64
2023/06/04 08:01:24;;;;;;;0.50;0.50;;;;;;;18.39;54.96;99987.34;5043902;28;20048;-64
2023/06/04 08:03:53;;;;;;;0.40;0.40;;;;;;;18.47;54.81;99991.47;5041171;28;20147;-65
2023/06/04 08:06:24;;;;;;;0.60;0.60;;;;;;;18.57;54.72;99998.03;5043942;28;20087;-64
2023/06/04 08:08:53;;;;;;;0.40;0.40;;;;;;;18.61;54.31;99999.66;5040748;28;20062;-65
2023/06/04 08:11:24;;;;;;;2.70;1.70;;;;;;;18.62;54.53;99996.19;5043900;28;20033;-64
2023/06/04 08:13:53;;;;;;;0.47;0.47;;;;;;;18.72;54.36;100002.78;5040987;28;20443;-65
2023/06/04 08:16:23;;;;;;;4.07;1.38;;;;;;;18.76;54.26;99994.94;5043790;28;20048;-64
2023/06/04 08:19:12;;;;;;;0.50;0.50;;;;;;;18.83;53.76;99993.88;5044353;28;20056;-65
2023/06/04 08:21:44;;;;;;;0.43;0.43;;;;;;;18.81;53.26;99998.25;5044543;28;20041;-64
2023/06/04 08:24:29;;;;;;;1.08;0.60;;;;;;;18.72;53.24;99995.03;5044517;28;20060;-65
2023/06/04 08:27:13;;;;;;;0.40;0.40;;;;;;;18.58;53.24;99989.41;5040284;28;20057;-64
2023/06/04 08:29:53;;;;;;;0.50;0.50;;;;;;;18.50;52.31;99991.34;5042813;28;20049;-64
2023/06/04 08:32:43;;;;;;;0.40;0.40;;;;;;;18.47;50.24;100006.97;5037590;28;20099;-64
2023/06/04 08:35:20;;;;;;;0.50;0.50;;;;;;;18.38;49.67;100002.00;5040192;28;20049;-64
2023/06/04 08:37:50;;;;;;;0.50;0.50;;;;;;;18.27;49.24;100004.03;5039013;28;20038;-63
2023/06/04 08:40:19;;;;;;;0.52;0.52;;;;;;;18.27;49.95;100009.19;5033159;28;20377;-63
2023/06/04 08:42:50;;;;;;;0.50;0.50;;;;;;;18.16;50.32;100008.66;5034015;28;20391;-64
2023/06/04 08:45:21;;;;;;;0.70;0.70;;;;;;;18.27;50.46;100024.72;5034118;28;20459;-63
2023/06/04 08:47:52;;;;;;;0.50;0.50;;;;;;;18.23;50.81;100017.94;5033935;28;20124;-64
2023/06/04 08:50:23;;;;;;;0.32;0.32;;;;;;;18.24;50.90;100024.78;5034182;28;20045;-64
2023/06/04 08:52:55;;;;;;;0.50;0.50;;;;;;;18.21;51.71;100024.03;5032488;28;20057;-64
2023/06/04 08:55:24;;;;;;;0.50;0.50;;;;;;;18.18;51.62;100018.94;5033867;28;20049;-64
2023/06/04 08:57:55;;;;;;;23.20;1.25;;;;;;;18.12;51.48;100025.09;5032564;28;20502;-63
2023/06/04 09:00:24;;;;;;;0.70;0.65;;;;;;;18.16;51.09;100024.16;5033960;28;20053;-63
2023/06/04 09:02:54;;;;;;;0.50;0.50;;;;;;;18.20;50.85;100023.19;5033622;28;20045;-64
2023/06/04 09:05:23;;;;;;;0.88;0.80;;;;;;;18.33;51.73;100027.13;5032402;28;20103;-63
2023/06/04 09:07:54;;;;;;;0.50;0.50;;;;;;;18.42;52.08;100023.44;5033922;28;20111;-63
2023/06/04 09:10:26;;;;;;;1.10;0.95;;;;;;;18.53;52.39;100026.63;5033429;28;20054;-63
2023/06/04 09:12:57;;;;;;;0.50;0.50;;;;;;;18.58;52.08;100025.59;5033699;28;20034;-64
2023/06/04 09:15:26;;;;;;;1.38;1.27;;;;;;;18.65;51.43;100036.63;5033716;28;20084;-64
2023/06/04 09:17:56;;;;;;;0.40;0.40;;;;;;;18.70;51.85;100037.34;5033316;28;20052;-64
2023/06/04 09:20:26;;;;;;;0.40;0.40;;;;;;;18.78;51.78;100039.72;5032730;28;20037;-64
2023/06/04 09:22:55;;;;;;;0.40;0.40;;;;;;;18.82;51.48;100043.91;5033246;28;20052;-63
2023/06/04 09:25:25;;;;;;;0.75;0.75;;;;;;;18.69;51.20;100017.56;5033768;28;20049;-63
2023/06/04 09:27:55;;;;;;;1.08;0.77;;;;;;;18.90;51.39;100047.13;5032906;28;20092;-64
2023/06/04 09:30:24;;;;;;;0.52;0.52;;;;;;;18.76;50.97;100032.00;5032880;28;20049;-64
2023/06/04 09:32:54;;;;;;;0.73;0.73;;;;;;;18.87;50.35;100034.28;5033388;28;20049;-64
2023/06/04 09:35:25;;;;;;;;;;;;;;;19.03;51.27;100027.75;5033801;28;20038;-64
2023/06/04 09:37:55;;;;;;;0.95;0.95;;;;;;;19.21;50.90;100029.81;5033586;28;19987;-64
2023/06/04 09:40:26;;;;;;;0.82;0.77;;;;;;;19.30;50.60;100026.94;5032427;28;20140;-64
2023/06/04 09:42:55;;;;;;;0.60;0.60;;;;;;;19.39;50.09;100026.69;5033462;28;20454;-64
2023/06/04 09:45:31;;;;;;;0.40;0.40;;;;;;;19.49;50.17;100017.72;5033504;28;20061;-64
2023/06/04 09:48:00;;;;;;;1.50;0.70;;;;;;;19.47;49.35;100022.13;5033140;28;20507;-64
2023/06/04 09:50:33;;;;;;;0.50;0.50;;;;;;;19.26;48.84;100033.09;5033194;28;20060;-64
2023/06/04 09:53:02;;;;;;;0.43;0.43;;;;;;;19.10;49.40;100029.28;5033617;28;20037;-64
2023/06/04 09:55:31;;;;;;;1.00;0.90;;;;;;;19.02;50.05;100039.00;5033399;28;20053;-64
2023/06/04 09:58:01;;;;;;;0.50;0.50;;;;;;;18.94;49.68;100026.28;5033198;28;20143;-64
2023/06/04 10:00:30;;;;;;;0.50;0.50;;;;;;;18.90;50.13;100021.25;5033121;28;20057;-64
2023/06/04 10:03:02;;;;;;;0.60;0.60;;;;;;;18.89;49.99;100035.06;5032742;28;20049;-64
2023/06/04 10:05:33;;;;;;;0.50;0.50;;;;;;;18.78;49.81;100031.94;5013220;28;20050;-64
2023/06/04 10:08:07;;;;;;;0.50;0.50;;;;;;;18.78;50.25;100024.19;5013348;28;20049;-64
2023/06/04 10:10:38;;;;;;;11.82;0.80;;;;;;;18.81;49.73;100022.38;5012291;28;20045;-64
2023/06/04 10:13:10;;;;;;;0.43;0.43;;;;;;;18.80;49.26;100030.16;5013326;28;20046;-64
2023/06/04 10:15:40;;;;;;;0.35;0.35;;;;;;;18.86;48.86;100035.19;5014838;28;20056;-64
2023/06/04 10:18:10;;;;;;;;;;;;;;;18.83;49.15;100043.03;5028878;28;20045;-64
2023/06/04 10:20:41;;;;;;;0.88;0.88;;;;;;;18.83;49.41;100041.28;5012056;28;19928;-64
2023/06/04 10:23:10;;;;;;;0.40;0.40;;;;;;;18.90;49.43;100041.94;5012052;28;20042;-64
2023/06/04 10:25:39;;;;;;;0.50;0.50;;;;;;;18.91;49.70;100038.50;5013242;28;20049;-64
2023/06/04 10:28:09;;;;;;;0.87;0.87;;;;;;;18.93;50.15;100039.28;5027009;28;20057;-64
2023/06/04 10:30:38;;;;;;;0.77;0.65;;;;;;;18.93;50.70;100037.53;5032874;28;20045;-64
2023/06/04 10:33:07;;;;;;;0.52;0.50;;;;;;;18.99;51.01;100046.84;5033050;28;20065;-63
2023/06/04 10:35:37;;;;;;;1.07;0.97;;;;;;;18.87;51.11;100036.84;5032690;28;20059;-64
2023/06/04 10:38:10;;;;;;;0.50;0.50;;;;;;;18.79;50.98;100039.66;5033319;28;20461;-64
2023/06/04 10:40:39;;;;;;;0.40;0.40;;;;;;;18.72;51.31;100048.47;5034826;28;20396;-64
2023/06/04 10:43:09;;;;;;;0.90;0.90;;;;;;;18.76;51.83;100054.44;5036263;28;20048;-64
2023/06/04 10:45:38;;;;;;;1.25;1.15;;;;;;;18.78;52.50;100052.66;5033381;28;20275;-64
2023/06/04 10:48:09;;;;;;;6.05;1.35;;;;;;;18.80;53.83;100056.03;5035002;28;20052;-63
2023/06/04 10:50:50;;;;;;;0.40;0.40;;;;;;;18.59;55.97;100062.66;5046734;28;20045;-62
2023/06/04 10:53:21;;;;;;;0.85;0.85;;;;;;;18.45;57.68;100065.56;5055961;28;20220;-63
2023/06/04 10:55:51;;;;;;;0.40;0.40;;;;;;;18.16;57.98;100042.25;5054960;28;20554;-64
2023/06/04 10:58:20;;;;;;;0.50;0.50;;;;;;;18.17;56.87;100062.00;5033651;28;20052;-63
2023/06/04 11:00:50;;;;;;;12.65;1.27;;;;;;;18.05;55.45;100070.06;5035398;28;20049;-63
2023/06/04 11:03:20;;;;;;;0.38;0.38;;;;;;;18.03;55.64;100067.53;5035832;28;20543;-63
2023/06/04 11:05:50;;;;;;;0.40;0.40;;;;;;;18.07;54.73;100063.13;5036092;28;20056;-64
2023/06/04 11:08:30;;;;;;;0.40;0.40;;;;;;;18.19;54.82;100061.97;5035775;28;20049;-63
2023/06/04 11:10:59;;;;;;;0.63;0.63;;;;;;;18.22;55.04;100067.91;5035684;28;20046;-63
2023/06/04 11:13:28;;;;;;;0.40;0.40;;;;;;;18.18;55.67;100061.13;5035911;28;20048;-63
2023/06/04 11:15:58;;;;;;;1.33;0.90;;;;;;;18.11;55.71;100064.75;5036392;28;20049;-63
2023/06/04 11:18:27;;;;;;;1.25;1.02;;;;;;;18.08;55.09;100070.00;5034566;28;20545;-63
2023/06/04 11:21:00;;;;;;;2.65;1.17;;;;;;;18.03;54.97;100064.09;5035829;28;20111;-63
2023/06/04 11:23:31;;;;;;;0.60;0.60;;;;;;;18.00;55.24;100071.91;5035660;28;20037;-64
2023/06/04 11:26:00;;;;;;;0.68;0.68;;;;;;;18.01;55.13;100074.47;5035572;28;20060;-63
2023/06/04 11:28:29;;;;;;;2.75;1.67;;;;;;;18.04;54.70;100079.53;5035176;28;20511;-63
2023/06/04 11:30:58;;;;;;;0.93;0.90;;;;;;;18.05;54.22;100085.56;5035425;28;20128;-63
2023/06/04 11:33:27;;;;;;;1.35;1.15;;;;;;;17.92;54.06;100074.66;5035522;28;20061;-64
2023/06/04 11:35:56;;;;;;;2.17;1.77;;;;;;;17.84;54.88;100076.59;5035296;28;20115;-64
2023/06/04 11:38:25;;;;;;;4.15;2.83;;;;;;;17.79;56.13;100082.75;5035293;28;20057;-63
2023/06/04 11:41:00;;;;;;;3.37;1.90;;;;;;;17.69;56.68;100076.97;5034305;28;20077;-64
2023/06/04 11:43:29;;;;;;;0.82;0.82;;;;;;;17.57;57.24;100084.13;5035210;28;20041;-63
2023/06/04 11:46:06;;;;;;;0.60;0.60;;;;;;;17.47;57.48;100080.03;5035118;28;20049;-63